Time;durP1;ratioP1;P1;durP2;ratioP2;P2;SDS_P1;SDS_P2;PMS_P1;PMS_P2;Temp;Humidity;BMP_temperature;BMP_pressure;BME280_temperature;BME280_humidity;BME280_pressure;Samples;Min_cycle;Max_cycle;Signal;HPM_P1;HPM_P2
2021/12/07 00:00:43;;;;;;;9.68;2.45;;;21.60;99.90;;;;;;5003681;28;20053;-67
2021/12/07 00:03:10;;;;;;;9.82;2.33;;;21.20;99.90;;;;;;5003657;28;20045;-67
2021/12/07 00:05:38;;;;;;;9.90;1.95;;;21.50;99.90;;;;;;5002538;28;20096;-67
2021/12/07 00:08:06;;;;;;;7.45;2.20;;;21.90;99.90;;;;;;5001209;28;20100;-67
2021/12/07 00:10:33;;;;;;;4.70;1.60;;;22.10;99.90;;;;;;5019556;28;20041;-67
2021/12/07 00:13:00;;;;;;;6.93;1.63;;;22.10;99.90;;;;;;5021661;28;20034;-67
2021/12/07 00:15:30;;;;;;;6.35;1.50;;;22.10;99.90;;;;;;5006578;28;20061;-67
2021/12/07 00:17:58;;;;;;;4.90;1.08;;;22.10;99.90;;;;;;5005128;28;20022;-67
2021/12/07 00:20:26;;;;;;;7.00;1.52;;;21.90;99.90;;;;;;5007628;28;20026;-67
2021/12/07 00:22:59;;;;;;;7.22;1.60;;;22.00;99.90;;;;;;5009817;28;20011;-67
2021/12/07 00:25:27;;;;;;;3.15;1.30;;;22.00;99.90;;;;;;5015443;28;20027;-67
2021/12/07 00:27:55;;;;;;;7.47;1.55;;;22.20;99.90;;;;;;5002636;28;20034;-67
2021/12/07 00:30:27;;;;;;;3.28;1.20;;;22.40;99.90;;;;;;5003880;28;20033;-67
2021/12/07 00:33:07;;;;;;;5.32;1.67;;;22.40;99.90;;;;;;5005633;28;20503;-67
2021/12/07 00:35:35;;;;;;;11.38;2.28;;;22.70;99.90;;;;;;5012830;28;20029;-67
2021/12/07 00:38:07;;;;;;;4.38;1.65;;;23.10;99.90;;;;;;5010798;28;20034;-67
2021/12/07 00:40:34;;;;;;;5.93;1.10;;;23.50;99.90;;;;;;5006888;28;20009;-67
2021/12/07 00:43:02;;;;;;;4.53;1.20;;;23.50;99.90;;;;;;5018093;28;20038;-67
2021/12/07 00:45:32;;;;;;;5.93;1.27;;;23.50;99.90;;;;;;4991881;28;20042;-67
2021/12/07 00:48:00;;;;;;;3.08;1.50;;;23.50;99.90;;;;;;4999526;28;20049;-67
2021/12/07 00:50:29;;;;;;;4.32;1.58;;;23.80;99.90;;;;;;5009690;28;20029;-67
2021/12/07 00:52:57;;;;;;;3.17;1.13;;;23.90;99.90;;;;;;5010953;28;20026;-67
2021/12/07 00:55:28;;;;;;;4.75;1.48;;;24.20;99.90;;;;;;5006306;28;20022;-67
2021/12/07 00:57:58;;;;;;;2.72;1.00;;;24.50;99.90;;;;;;5005460;28;20026;-67
2021/12/07 01:00:29;;;;;;;3.55;1.40;;;24.20;99.90;;;;;;5014009;28;20033;-67
2021/12/07 01:02:57;;;;;;;3.45;1.00;;;24.40;99.90;;;;;;5006104;28;20042;-67
2021/12/07 01:05:30;;;;;;;3.38;1.17;;;24.50;99.90;;;;;;5009333;28;20038;-67
2021/12/07 01:27:03;;;;;;;2.20;0.70;;;25.70;99.90;;;;;;5001338;28;20517;-67
2021/12/07 01:29:31;;;;;;;3.25;1.00;;;25.20;99.90;;;;;;5003854;28;20037;-67
2021/12/07 01:45:03;;;;;;;3.75;0.90;;;26.40;99.90;;;;;;5001427;28;20081;-68
2021/12/07 01:53:10;;;;;;;2.50;0.70;;;26.60;99.90;;;;;;4999588;28;20090;-68
2021/12/07 02:01:08;;;;;;;1.60;0.77;;;26.80;99.90;;;;;;5000838;28;20038;-67
2021/12/07 02:03:38;;;;;;;5.80;1.02;;;27.00;99.90;;;;;;5001692;28;20062;-67
2021/12/07 02:06:06;;;;;;;2.35;0.73;;;27.10;99.90;;;;;;5000032;28;20018;-67
2021/12/07 02:08:33;;;;;;;2.55;0.88;;;27.30;99.90;;;;;;5001532;28;20038;-68
2021/12/07 02:11:02;;;;;;;2.13;0.88;;;27.00;99.90;;;;;;5003428;28;20023;-68
2021/12/07 02:15:57;;;;;;;7.85;1.65;;;27.50;99.90;;;;;;5002676;28;20062;-68
2021/12/07 02:18:25;;;;;;;6.85;1.55;;;27.20;99.90;;;;;;5009590;28;20050;-68
2021/12/07 02:20:52;;;;;;;4.75;1.80;;;27.30;99.90;;;;;;5010742;28;20030;-68
2021/12/07 02:23:20;;;;;;;5.10;1.30;;;27.10;99.90;;;;;;5008113;28;20027;-68
2021/12/07 02:25:47;;;;;;;4.57;1.40;;;27.20;99.90;;;;;;5012395;28;20026;-69
2021/12/07 02:28:16;;;;;;;4.60;1.60;;;27.40;99.90;;;;;;5029335;28;20011;-69
2021/12/07 02:30:45;;;;;;;6.93;1.73;;;27.20;99.90;;;;;;5013267;28;20026;-69
2021/12/07 02:33:12;;;;;;;8.10;1.65;;;27.10;99.90;;;;;;5012272;28;20077;-68
2021/12/07 02:35:41;;;;;;;10.07;1.67;;;27.40;99.90;;;;;;5011079;28;20034;-68
2021/12/07 02:38:08;;;;;;;7.95;2.13;;;27.50;99.90;;;;;;5012170;28;20030;-69
2021/12/07 02:40:35;;;;;;;8.40;1.63;;;27.40;99.90;;;;;;5012284;28;20030;-69
2021/12/07 02:43:03;;;;;;;7.60;1.42;;;27.10;99.90;;;;;;5011030;28;20034;-68
2021/12/07 02:45:30;;;;;;;5.95;1.50;;;27.00;99.90;;;;;;5013607;28;20121;-69
2021/12/07 02:47:57;;;;;;;7.13;1.67;;;27.00;99.90;;;;;;5011753;28;20025;-68
2021/12/07 02:50:24;;;;;;;5.28;1.30;;;26.80;99.90;;;;;;5009993;28;20027;-69
2021/12/07 02:52:52;;;;;;;7.85;1.92;;;26.70;99.90;;;;;;5011586;28;20061;-68
2021/12/07 02:55:19;;;;;;;6.18;1.30;;;26.60;99.90;;;;;;5014119;28;20014;-69
2021/12/07 02:57:47;;;;;;;5.80;1.60;;;26.50;99.90;;;;;;5014195;28;20102;-68
2021/12/07 03:00:20;;;;;;;5.57;1.60;;;26.50;99.90;;;;;;5013473;28;20121;-68
2021/12/07 03:03:09;;;;;;;8.23;1.70;;;26.80;99.90;;;;;;5012114;28;20006;-68
2021/12/07 03:06:06;;;;;;;6.35;1.30;;;26.90;99.90;;;;;;5013313;28;20026;-69
2021/12/07 03:09:15;;;;;;;7.45;1.70;;;26.80;99.90;;;;;;5007055;28;20034;-68
2021/12/07 03:28:11;;;;;;;6.50;1.92;;;25.20;99.90;;;;;;5012539;28;20086;-68
2021/12/07 03:30:39;;;;;;;5.45;1.40;;;25.00;99.90;;;;;;5012446;28;20030;-70
2021/12/07 03:33:07;;;;;;;9.63;2.15;;;24.70;99.90;;;;;;5012704;28;20082;-68
2021/12/07 03:35:34;;;;;;;5.75;1.38;;;24.70;99.90;;;;;;5014674;28;20041;-68
2021/12/07 03:38:02;;;;;;;4.93;1.42;;;24.70;99.90;;;;;;5014532;28;20010;-68
2021/12/07 03:40:30;;;;;;;5.03;1.60;;;25.00;99.90;;;;;;5011641;28;20038;-68
2021/12/07 03:42:58;;;;;;;6.78;1.20;;;25.20;99.90;;;;;;5012970;28;20033;-68
2021/12/07 03:45:26;;;;;;;5.50;1.45;;;25.20;99.90;;;;;;5013313;28;20061;-68
2021/12/07 03:47:56;;;;;;;7.60;1.55;;;25.00;99.90;;;;;;5012978;28;20037;-68
2021/12/07 03:50:23;;;;;;;7.07;1.17;;;25.20;99.90;;;;;;5010546;28;20109;-68
2021/12/07 03:52:52;;;;;;;5.53;1.10;;;24.90;99.90;;;;;;5011411;28;20030;-68
2021/12/07 03:55:20;;;;;;;6.75;1.17;;;24.80;99.90;;;;;;5012713;28;20045;-68
2021/12/07 03:57:48;;;;;;;7.28;1.30;;;24.80;99.90;;;;;;5008187;28;20061;-68
2021/12/07 04:00:19;;;;;;;2.88;1.20;;;25.00;99.90;;;;;;5010201;28;20026;-68
2021/12/07 04:02:50;;;;;;;5.10;1.40;;;25.00;99.90;;;;;;5008010;28;20573;-69
2021/12/07 04:05:19;;;;;;;9.15;1.50;;;24.80;99.90;;;;;;5008578;28;20098;-68
2021/12/07 04:07:47;;;;;;;7.47;1.60;;;24.70;99.90;;;;;;5014189;28;20117;-68
2021/12/07 04:10:17;;;;;;;7.43;1.45;;;24.80;99.90;;;;;;5014573;28;20532;-68
2021/12/07 04:12:44;;;;;;;9.30;1.38;;;24.80;99.90;;;;;;5028476;28;20031;-69
2021/12/07 04:15:15;;;;;;;8.55;2.10;;;24.70;99.90;;;;;;5013470;28;20062;-68
2021/12/07 04:17:42;;;;;;;6.35;1.40;;;24.40;99.90;;;;;;5023033;28;20053;-68
2021/12/07 04:20:12;;;;;;;6.45;1.63;;;24.40;99.90;;;;;;5011577;28;20041;-68
2021/12/07 04:22:40;;;;;;;7.28;1.48;;;24.10;99.90;;;;;;5014814;28;20046;-67
2021/12/07 04:25:10;;;;;;;8.82;1.85;;;24.00;99.90;;;;;;5013819;28;20110;-68
2021/12/07 04:27:39;;;;;;;4.10;1.25;;;24.00;99.90;;;;;;5008783;28;20443;-68
2021/12/07 04:30:15;;;;;;;5.55;1.83;;;23.80;99.90;;;;;;5009250;28;20038;-69
2021/12/07 04:32:44;;;;;;;6.53;1.52;;;23.60;99.90;;;;;;5013130;28;20030;-68
2021/12/07 04:35:12;;;;;;;11.48;1.52;;;23.60;99.90;;;;;;5010307;28;20025;-68
2021/12/07 04:37:41;;;;;;;8.88;1.58;;;23.30;99.90;;;;;;5011942;28;20019;-67
2021/12/07 04:40:13;;;;;;;6.78;1.48;;;23.10;99.90;;;;;;5011000;28;20435;-68
2021/12/07 04:42:40;;;;;;;9.48;1.73;;;23.00;99.90;;;;;;5008023;28;20026;-67
2021/12/07 04:45:14;;;;;;;6.00;1.90;;;22.80;99.90;;;;;;5003674;28;20030;-67
2021/12/07 04:47:56;;;;;;;11.50;3.13;;;22.70;99.90;;;;;;4992970;28;20025;-67
2021/12/07 04:50:39;;;;;;;15.82;5.10;;;22.50;99.90;;;;;;5010256;28;20038;-65
2021/12/07 04:58:38;;;;;;;15.55;3.67;;;21.60;99.90;;;;;;4992900;28;20129;-66
2021/12/07 05:01:11;;;;;;;14.52;3.25;;;21.10;99.90;;;;;;4982027;28;20027;-65
2021/12/07 05:03:41;;;;;;;7.07;2.50;;;20.50;99.90;;;;;;5001190;28;20038;-65
2021/12/07 05:06:10;;;;;;;12.57;3.38;;;20.30;99.90;;;;;;4997183;28;20042;-65
2021/12/07 05:08:43;;;;;;;19.77;4.53;;;20.20;99.90;;;;;;4998186;28;20054;-64
2021/12/07 05:14:27;;;;;;;6.93;2.10;;;20.40;99.90;;;;;;5003473;28;20054;-65
2021/12/07 05:38:33;;;;;;;7.38;2.75;;;20.90;99.90;;;;;;5015645;28;20025;-65
2021/12/07 05:41:00;;;;;;;8.30;3.03;;;20.90;99.90;;;;;;5015460;28;20034;-66
2021/12/07 05:43:27;;;;;;;7.35;2.85;;;21.00;99.90;;;;;;5014909;28;20121;-66
2021/12/07 05:45:55;;;;;;;6.80;2.33;;;21.00;99.90;;;;;;5016985;28;20022;-66
2021/12/07 05:48:22;;;;;;;11.85;3.10;;;21.00;99.90;;;;;;5016475;28;20041;-66
2021/12/07 05:50:49;;;;;;;10.57;2.92;;;21.00;99.90;;;;;;5017405;28;20022;-66
2021/12/07 05:53:17;;;;;;;7.07;2.67;;;21.00;99.90;;;;;;5007242;28;20031;-66
2021/12/07 05:55:44;;;;;;;6.40;2.67;;;21.00;99.90;;;;;;5017299;28;20077;-65
2021/12/07 05:58:12;;;;;;;5.57;2.83;;;21.00;99.90;;;;;;5017721;28;20034;-65
2021/12/07 06:00:43;;;;;;;9.48;2.90;;;21.00;99.90;;;;;;5036722;28;20030;-65
2021/12/07 06:03:12;;;;;;;7.05;2.63;;;21.00;99.90;;;;;;5021450;28;20023;-66
2021/12/07 06:05:42;;;;;;;5.63;3.28;;;21.00;99.90;;;;;;5035543;28;20029;-65
2021/12/07 06:08:10;;;;;;;13.23;3.13;;;21.10;99.90;;;;;;5020785;28;20018;-66
2021/12/07 06:10:38;;;;;;;6.60;3.05;;;21.10;99.90;;;;;;5022065;28;20025;-66
2021/12/07 06:13:06;;;;;;;7.70;2.90;;;21.10;99.90;;;;;;5033806;28;20023;-65
2021/12/07 06:15:36;;;;;;;9.18;3.70;;;21.10;99.90;;;;;;5002172;28;20039;-65
2021/12/07 06:18:05;;;;;;;10.77;4.03;;;21.00;99.90;;;;;;5017946;28;20082;-66
2021/12/07 06:20:32;;;;;;;8.10;3.47;;;21.00;99.90;;;;;;5021834;28;20014;-66
2021/12/07 06:23:00;;;;;;;6.35;3.72;;;21.00;99.90;;;;;;5019661;28;20025;-66
2021/12/07 06:25:28;;;;;;;9.25;4.00;;;21.10;99.90;;;;;;5021390;28;20011;-66
2021/12/07 06:27:56;;;;;;;11.43;4.40;;;21.00;99.90;;;;;;5019971;28;20529;-67
2021/12/07 06:30:23;;;;;;;10.82;4.15;;;21.10;99.90;;;;;;5020265;28;20054;-66
2021/12/07 06:32:50;;;;;;;9.68;4.00;;;21.10;99.90;;;;;;5018564;28;20049;-67
2021/12/07 06:35:18;;;;;;;9.68;4.10;;;21.00;99.90;;;;;;5020883;28;20022;-65
2021/12/07 06:37:45;;;;;;;8.15;3.80;;;21.00;99.90;;;;;;5019693;28;20119;-65
2021/12/07 06:40:13;;;;;;;6.60;3.28;;;21.00;99.90;;;;;;5021309;28;20014;-66
2021/12/07 06:42:40;;;;;;;7.18;2.88;;;21.00;99.90;;;;;;5017561;28;20019;-65
2021/12/07 06:45:10;;;;;;;9.80;3.17;;;21.00;99.90;;;;;;5016958;28;20034;-66
2021/12/07 06:47:39;;;;;;;7.68;3.03;;;21.00;99.90;;;;;;5034793;28;20014;-66
2021/12/07 06:50:09;;;;;;;7.53;3.20;;;21.00;99.90;;;;;;5036116;28;20031;-66
2021/12/07 06:52:37;;;;;;;6.35;2.83;;;21.00;99.90;;;;;;5019377;28;20087;-66
2021/12/07 06:55:06;;;;;;;11.18;3.90;;;21.00;99.90;;;;;;5036380;28;20130;-66
2021/12/07 06:57:33;;;;;;;8.98;3.55;;;21.00;99.90;;;;;;5019234;28;20038;-66
2021/12/07 07:00:01;;;;;;;11.65;3.42;;;21.10;99.90;;;;;;5021010;28;20034;-66
2021/12/07 07:02:28;;;;;;;10.13;3.67;;;21.10;99.90;;;;;;5020335;28;20026;-66
2021/12/07 07:04:56;;;;;;;11.13;3.65;;;21.10;99.90;;;;;;5019717;28;20046;-66
2021/12/07 07:07:24;;;;;;;11.30;3.80;;;21.10;99.90;;;;;;5035799;28;20022;-66
2021/12/07 07:09:52;;;;;;;11.30;3.15;;;21.10;99.90;;;;;;5020308;28;20015;-66
2021/12/07 07:12:19;;;;;;;9.18;3.05;;;21.10;99.90;;;;;;5035318;28;20045;-67
2021/12/07 07:14:48;;;;;;;6.10;2.25;;;21.00;99.90;;;;;;5019709;28;20042;-66
2021/12/07 07:17:15;;;;;;;8.65;2.42;;;20.90;99.90;;;;;;5020186;28;20019;-66
2021/12/07 07:19:43;;;;;;;5.07;2.38;;;20.90;99.90;;;;;;5020412;28;20014;-66
2021/12/07 07:22:10;;;;;;;6.97;2.20;;;20.90;99.90;;;;;;5019167;28;20023;-66
2021/12/07 07:24:38;;;;;;;9.23;3.05;;;20.90;99.90;;;;;;5020568;28;20027;-66
2021/12/07 07:27:05;;;;;;;4.63;2.47;;;20.90;99.90;;;;;;5019527;28;20037;-66
2021/12/07 07:29:33;;;;;;;6.32;2.03;;;20.90;99.90;;;;;;5020502;28;20066;-66
2021/12/07 07:32:00;;;;;;;6.65;2.40;;;20.90;99.90;;;;;;5019750;28;20029;-66
2021/12/07 07:34:27;;;;;;;5.75;2.30;;;20.90;99.90;;;;;;5020104;28;20018;-66
2021/12/07 07:36:55;;;;;;;4.47;2.20;;;20.90;99.90;;;;;;5019016;28;20026;-66
2021/12/07 07:39:22;;;;;;;7.20;2.65;;;20.90;99.90;;;;;;5019979;28;20031;-66
2021/12/07 07:41:50;;;;;;;4.35;2.58;;;20.80;99.90;;;;;;5016424;28;20045;-66
2021/12/07 07:44:18;;;;;;;5.43;2.10;;;20.80;99.90;;;;;;5034886;28;20038;-67
2021/12/07 07:46:45;;;;;;;6.57;2.85;;;20.80;99.90;;;;;;5019175;28;20026;-67
2021/12/07 07:49:12;;;;;;;8.20;2.45;;;20.80;99.90;;;;;;5019823;28;20026;-66
2021/12/07 07:51:40;;;;;;;6.63;2.60;;;20.80;99.90;;;;;;5035083;28;20026;-66
2021/12/07 07:54:07;;;;;;;4.95;2.78;;;20.80;99.90;;;;;;5019651;28;20050;-67
2021/12/07 07:56:36;;;;;;;5.50;3.03;;;20.80;99.90;;;;;;5018710;28;20035;-67
2021/12/07 07:59:04;;;;;;;6.85;2.28;;;20.80;99.90;;;;;;5017860;28;20082;-67
2021/12/07 08:01:31;;;;;;;4.63;2.10;;;20.70;99.90;;;;;;5017714;28;20030;-67
2021/12/07 08:04:01;;;;;;;5.32;1.98;;;20.70;99.90;;;;;;5033488;28;20046;-67
2021/12/07 08:06:29;;;;;;;6.72;1.90;;;20.70;99.90;;;;;;5017957;28;20034;-67
2021/12/07 08:08:58;;;;;;;4.80;2.40;;;20.70;99.90;;;;;;5019199;28;20014;-66
2021/12/07 08:11:25;;;;;;;9.23;2.80;;;20.70;99.90;;;;;;5033190;28;20110;-66
2021/12/07 08:13:53;;;;;;;5.18;2.25;;;20.60;99.90;;;;;;5017976;28;20042;-67
2021/12/07 08:16:20;;;;;;;6.38;2.50;;;20.60;99.90;;;;;;5017997;28;20007;-67
2021/12/07 08:18:50;;;;;;;3.78;2.10;;;20.50;99.90;;;;;;5018286;28;20026;-66
2021/12/07 08:21:18;;;;;;;6.82;2.90;;;20.60;99.90;;;;;;5017987;28;20065;-66
2021/12/07 08:23:47;;;;;;;5.25;3.30;;;20.60;99.90;;;;;;5017919;28;20054;-66
2021/12/07 08:26:17;;;;;;;6.35;3.60;;;20.60;99.90;;;;;;5017776;28;20046;-66
2021/12/07 08:28:45;;;;;;;7.50;4.68;;;20.50;99.90;;;;;;5018204;28;20049;-66
2021/12/07 08:31:12;;;;;;;4.82;4.00;;;20.50;99.90;;;;;;5034215;28;20018;-66
2021/12/07 08:33:39;;;;;;;9.75;5.72;;;20.50;99.90;;;;;;5018438;28;20058;-66
2021/12/07 08:36:07;;;;;;;10.63;5.75;;;20.40;99.90;;;;;;5016061;28;20066;-66
2021/12/07 08:38:34;;;;;;;8.98;4.43;;;20.40;99.90;;;;;;5018336;28;20015;-66
2021/12/07 08:41:02;;;;;;;6.20;3.00;;;20.40;99.90;;;;;;5034505;28;20022;-66
2021/12/07 08:43:33;;;;;;;6.40;3.35;;;20.40;99.90;;;;;;5018050;28;20022;-66
2021/12/07 08:46:02;;;;;;;8.90;3.40;;;20.30;99.90;;;;;;5018915;28;20006;-66
2021/12/07 08:48:31;;;;;;;6.53;3.08;;;20.40;99.90;;;;;;5017743;28;20118;-66
2021/12/07 08:50:59;;;;;;;4.85;3.05;;;20.40;99.90;;;;;;5018258;28;20034;-66
2021/12/07 08:53:27;;;;;;;4.75;2.92;;;20.30;99.90;;;;;;5008447;28;20026;-66
2021/12/07 09:01:29;;;;;;;8.27;3.05;;;20.20;99.90;;;;;;5001155;28;20017;-66
2021/12/07 09:03:59;;;;;;;6.40;2.55;;;20.20;99.90;;;;;;5015827;28;20078;-66
2021/12/07 09:06:27;;;;;;;5.07;2.60;;;20.20;99.90;;;;;;5000216;28;20026;-66
2021/12/07 09:08:55;;;;;;;5.13;2.58;;;20.20;99.90;;;;;;5032461;28;20027;-66
2021/12/07 09:11:23;;;;;;;6.13;1.95;;;20.10;99.90;;;;;;5016502;28;20132;-66
2021/12/07 09:13:51;;;;;;;5.15;2.83;;;20.10;99.90;;;;;;5032728;28;20047;-67
2021/12/07 09:16:20;;;;;;;6.43;3.10;;;20.10;99.90;;;;;;5031250;28;20057;-66
2021/12/07 09:18:48;;;;;;;5.72;2.50;;;20.10;99.90;;;;;;5017651;28;20018;-67
2021/12/07 09:21:17;;;;;;;5.82;2.20;;;20.10;99.90;;;;;;5016703;28;20024;-66
2021/12/07 09:23:44;;;;;;;6.47;2.40;;;20.10;99.90;;;;;;5017221;28;20061;-67
2021/12/07 09:26:11;;;;;;;5.25;2.80;;;20.10;99.90;;;;;;5017560;28;20022;-67
2021/12/07 09:28:40;;;;;;;6.60;3.08;;;20.10;99.90;;;;;;5018534;28;20033;-67
2021/12/07 09:31:08;;;;;;;6.40;3.53;;;20.10;99.90;;;;;;5022376;28;20031;-66
2021/12/07 09:33:36;;;;;;;5.72;3.47;;;20.10;99.90;;;;;;5017243;28;20042;-67
2021/12/07 09:36:05;;;;;;;9.73;3.47;;;20.00;99.90;;;;;;5017339;28;20082;-67
2021/12/07 09:38:33;;;;;;;5.95;3.25;;;20.00;99.90;;;;;;5017300;28;20019;-67
2021/12/07 09:41:01;;;;;;;8.23;3.38;;;20.00;99.90;;;;;;5017677;28;20026;-67
2021/12/07 09:43:28;;;;;;;8.30;3.00;;;20.00;99.90;;;;;;5017075;28;20025;-67
2021/12/07 09:45:55;;;;;;;9.05;2.92;;;19.90;99.90;;;;;;5016488;28;20036;-67
2021/12/07 09:48:24;;;;;;;5.45;3.10;;;19.90;99.90;;;;;;5016115;28;20030;-67
2021/12/07 09:50:54;;;;;;;7.47;3.42;;;19.90;99.90;;;;;;5016181;28;20034;-66
2021/12/07 09:53:24;;;;;;;6.32;2.20;;;19.90;99.90;;;;;;5017000;28;20041;-67
2021/12/07 09:55:51;;;;;;;5.93;3.05;;;19.90;99.90;;;;;;5032243;28;20034;-66
2021/12/07 09:58:20;;;;;;;5.65;2.78;;;20.00;99.90;;;;;;5014097;28;20022;-66
2021/12/07 10:00:49;;;;;;;6.03;2.70;;;20.00;99.90;;;;;;5016825;28;20033;-67
2021/12/07 10:03:18;;;;;;;8.25;2.70;;;20.00;99.90;;;;;;5014803;28;20069;-67
2021/12/07 10:05:46;;;;;;;7.50;2.78;;;20.00;99.90;;;;;;5016594;28;20017;-67
2021/12/07 10:08:14;;;;;;;6.22;3.13;;;20.00;99.90;;;;;;5015958;28;20057;-67
2021/12/07 10:10:55;;;;;;;7.60;3.08;;;20.00;99.90;;;;;;5017060;28;20037;-67
2021/12/07 10:13:27;;;;;;;7.40;3.50;;;20.00;99.90;;;;;;5015844;28;20035;-67
2021/12/07 10:15:55;;;;;;;7.15;2.45;;;20.00;99.90;;;;;;5033038;28;20023;-67
2021/12/07 10:18:25;;;;;;;7.68;3.28;;;20.00;99.90;;;;;;5016255;28;20022;-67
2021/12/07 10:20:55;;;;;;;6.95;3.22;;;19.90;99.90;;;;;;5015850;28;20094;-67
2021/12/07 10:23:25;;;;;;;4.47;2.97;;;19.90;99.90;;;;;;5016671;28;20074;-67
2021/12/07 10:26:16;;;;;;;7.25;3.05;;;19.90;99.90;;;;;;5014486;28;20030;-66
2021/12/07 10:28:50;;;;;;;7.03;3.10;;;19.90;99.90;;;;;;5015705;28;20090;-67
2021/12/07 10:31:24;;;;;;;6.22;3.03;;;19.90;99.90;;;;;;5017307;28;20038;-67
2021/12/07 10:34:00;;;;;;;5.63;3.58;;;19.90;99.90;;;;;;5033517;28;20019;-67
2021/12/07 10:36:34;;;;;;;6.38;3.20;;;19.80;99.90;;;;;;5016537;28;20037;-66
2021/12/07 10:39:14;;;;;;;;;;;19.80;99.90;;;;;;5017962;28;20038;-66
2021/12/07 10:41:52;;;;;;;6.13;2.90;;;19.80;99.90;;;;;;5016413;28;19958;-67
2021/12/07 10:44:24;;;;;;;9.38;3.53;;;19.70;99.90;;;;;;5017606;28;20031;-67
2021/12/07 10:47:19;;;;;;;6.75;2.88;;;19.70;99.90;;;;;;5019930;28;20018;-67
2021/12/07 10:49:50;;;;;;;;;;;19.70;99.90;;;;;;5001184;28;20007;-67
2021/12/07 10:52:39;;;;;;;7.30;2.50;;;19.70;99.90;;;;;;5011055;28;19906;-67
2021/12/07 10:55:23;;;;;;;3.88;2.60;;;19.60;99.90;;;;;;5033854;28;20032;-67
2021/12/07 10:57:57;;;;;;;5.57;2.95;;;19.60;99.90;;;;;;5018945;28;20041;-67
2021/12/07 11:00:44;;;;;;;5.05;2.50;;;19.60;99.90;;;;;;5020599;28;20023;-67
2021/12/07 11:03:16;;;;;;;6.68;3.25;;;19.70;99.90;;;;;;5019216;28;20034;-67
2021/12/07 11:05:51;;;;;;;5.63;3.42;;;19.70;99.90;;;;;;5013884;28;20030;-66
2021/12/07 11:08:21;;;;;;;7.60;3.20;;;19.60;99.90;;;;;;5016660;28;20065;-67
2021/12/07 11:10:50;;;;;;;4.20;2.97;;;19.70;99.90;;;;;;5019868;28;20031;-67
2021/12/07 11:13:26;;;;;;;6.22;2.50;;;19.60;99.90;;;;;;5034584;28;20038;-68
2021/12/07 11:15:57;;;;;;;4.90;2.70;;;19.60;99.90;;;;;;5035830;28;20038;-67
2021/12/07 11:18:37;;;;;;;5.55;3.47;;;19.60;99.90;;;;;;5016337;28;20023;-66
2021/12/07 11:21:08;;;;;;;10.02;6.55;;;19.60;99.90;;;;;;5030933;28;20026;-67
2021/12/07 11:23:46;;;;;;;11.50;8.38;;;19.60;99.90;;;;;;4999861;28;20081;-67
2021/12/07 11:31:38;;;;;;;5.70;3.38;;;19.50;99.90;;;;;;5034186;28;20049;-66
2021/12/07 11:34:15;;;;;;;3.97;2.10;;;19.50;99.90;;;;;;5019199;28;20130;-67
2021/12/07 11:36:51;;;;;;;5.35;2.50;;;19.50;99.90;;;;;;5017467;28;20036;-67
2021/12/07 11:39:32;;;;;;;5.18;2.58;;;19.50;99.90;;;;;;5018162;28;20038;-67
2021/12/07 11:42:09;;;;;;;4.63;1.90;;;19.50;99.90;;;;;;5016951;28;20034;-67
2021/12/07 11:44:50;;;;;;;5.10;2.00;;;19.50;99.90;;;;;;5017543;28;20034;-67
2021/12/07 11:47:28;;;;;;;8.60;2.42;;;19.40;99.90;;;;;;5014002;28;20090;-67
2021/12/07 11:49:57;;;;;;;5.95;1.92;;;19.50;99.90;;;;;;4999057;28;20031;-67
2021/12/07 11:52:25;;;;;;;4.72;1.95;;;19.50;99.90;;;;;;5016940;28;20016;-67
2021/12/07 11:54:52;;;;;;;4.50;1.95;;;19.50;99.90;;;;;;5015431;28;20025;-67
2021/12/07 11:57:21;;;;;;;4.47;1.63;;;19.40;99.90;;;;;;5032104;28;20038;-67
2021/12/07 11:59:50;;;;;;;3.80;1.95;;;19.40;99.90;;;;;;5031585;28;20037;-67
2021/12/07 12:02:18;;;;;;;5.20;2.13;;;19.40;99.90;;;;;;5013763;28;20038;-67
2021/12/07 12:04:47;;;;;;;5.22;2.25;;;19.40;99.90;;;;;;5015535;28;20037;-67
2021/12/07 12:07:15;;;;;;;3.33;1.83;;;19.40;99.90;;;;;;5016251;28;20026;-67
2021/12/07 12:09:49;;;;;;;4.35;1.65;;;19.50;99.90;;;;;;5015784;28;20017;-67
2021/12/07 12:12:42;;;;;;;11.35;2.60;;;19.50;99.90;;;;;;5017397;28;20038;-67
2021/12/07 12:15:38;;;;;;;4.25;1.52;;;19.50;99.90;;;;;;5029609;28;20046;-67
2021/12/07 12:18:05;;;;;;;2.80;1.52;;;19.40;99.90;;;;;;4998978;28;20042;-66
2021/12/07 12:20:58;;;;;;;5.22;1.55;;;19.40;99.90;;;;;;5016254;28;20110;-67
2021/12/07 12:23:59;;;;;;;4.95;1.63;;;19.40;99.90;;;;;;5016663;28;20040;-67
2021/12/07 12:26:28;;;;;;;4.38;1.92;;;19.40;99.90;;;;;;5017150;28;20031;-67
2021/12/07 12:28:58;;;;;;;5.20;1.80;;;19.40;99.90;;;;;;5016134;28;20018;-67
2021/12/07 12:31:56;;;;;;;3.78;1.90;;;19.30;99.90;;;;;;5015881;28;20030;-67
2021/12/07 12:34:30;;;;;;;4.30;1.40;;;19.30;99.90;;;;;;5023470;28;20109;-67
2021/12/07 12:37:10;;;;;;;7.65;1.70;;;19.30;99.90;;;;;;5014896;28;20022;-67
2021/12/07 12:39:53;;;;;;;3.60;1.75;;;19.20;99.90;;;;;;5014825;28;20033;-67
2021/12/07 12:42:20;;;;;;;7.88;1.63;;;19.20;99.90;;;;;;5016403;28;20023;-67
2021/12/07 12:44:48;;;;;;;5.07;1.90;;;19.20;99.90;;;;;;5032400;28;20041;-67
2021/12/07 12:47:24;;;;;;;2.75;1.42;;;19.20;99.90;;;;;;5015041;28;20026;-67
2021/12/07 12:49:51;;;;;;;3.47;1.50;;;19.20;99.90;;;;;;5030790;28;20037;-67
2021/12/07 12:52:41;;;;;;;2.75;1.45;;;19.20;99.90;;;;;;5016346;28;20026;-67
2021/12/07 12:55:38;;;;;;;3.38;1.23;;;19.20;99.90;;;;;;5016648;28;20135;-67
2021/12/07 12:58:18;;;;;;;3.30;1.77;;;19.20;99.90;;;;;;5016242;28;20019;-67
2021/12/07 13:01:13;;;;;;;5.90;1.60;;;19.20;99.90;;;;;;5016021;28;20030;-67
2021/12/07 13:04:09;;;;;;;2.42;1.25;;;19.20;99.90;;;;;;5016347;28;20007;-67
2021/12/07 13:07:02;;;;;;;3.35;1.85;;;19.20;99.90;;;;;;5001106;28;20026;-67
2021/12/07 13:09:38;;;;;;;3.80;2.13;;;19.20;99.90;;;;;;5011126;28;20044;-67
2021/12/07 13:12:23;;;;;;;4.20;1.92;;;19.20;99.90;;;;;;5015565;28;20022;-67
2021/12/07 13:14:51;;;;;;;3.42;2.10;;;19.10;99.90;;;;;;5015898;28;20046;-67
2021/12/07 13:17:29;;;;;;;7.38;1.90;;;19.20;99.90;;;;;;5015235;28;20029;-67
2021/12/07 13:20:25;;;;;;;2.80;1.42;;;19.20;99.90;;;;;;5016603;28;20033;-67
2021/12/07 13:23:12;;;;;;;2.67;1.15;;;19.20;99.90;;;;;;5015585;28;20031;-67
2021/12/07 13:25:49;;;;;;;3.20;1.65;;;19.20;99.90;;;;;;5015200;28;20038;-67
2021/12/07 13:28:27;;;;;;;4.63;1.23;;;19.10;99.90;;;;;;5015011;28;20042;-66
2021/12/07 13:31:03;;;;;;;6.82;1.50;;;19.10;99.90;;;;;;5015742;28;20027;-67
2021/12/07 13:33:43;;;;;;;5.72;1.65;;;19.10;99.90;;;;;;5014051;28;20045;-67
2021/12/07 13:36:28;;;;;;;6.03;1.85;;;19.10;99.90;;;;;;5012170;28;20088;-67
2021/12/07 13:39:05;;;;;;;2.85;1.20;;;19.10;99.90;;;;;;5029563;28;20031;-67
2021/12/07 13:41:33;;;;;;;4.88;1.38;;;19.10;99.90;;;;;;5012668;28;20034;-67
2021/12/07 13:44:00;;;;;;;6.93;1.60;;;19.10;99.90;;;;;;5012616;28;20026;-67
2021/12/07 13:46:28;;;;;;;7.85;1.95;;;19.10;99.90;;;;;;5010930;28;20030;-67
2021/12/07 13:49:10;;;;;;;5.00;1.70;;;19.00;99.90;;;;;;5011772;28;20157;-67
2021/12/07 13:51:39;;;;;;;3.78;1.20;;;19.00;99.90;;;;;;5027016;28;20031;-67
2021/12/07 13:54:13;;;;;;;4.63;1.27;;;19.00;99.90;;;;;;5012759;28;20026;-67
2021/12/07 13:56:41;;;;;;;5.43;1.70;;;19.00;99.90;;;;;;5010777;28;20078;-67
2021/12/07 13:59:12;;;;;;;3.53;1.67;;;19.00;99.90;;;;;;5010807;28;20029;-67
2021/12/07 14:01:42;;;;;;;3.00;1.70;;;19.00;99.90;;;;;;5006404;28;20086;-67
2021/12/07 14:04:09;;;;;;;3.53;1.75;;;19.00;99.90;;;;;;5005961;28;20042;-67
2021/12/07 14:06:37;;;;;;;4.00;1.60;;;18.90;99.90;;;;;;5007091;28;20336;-67
2021/12/07 14:09:10;;;;;;;5.47;2.15;;;18.90;99.90;;;;;;5010811;28;20445;-67
2021/12/07 14:11:38;;;;;;;5.55;1.95;;;18.80;99.90;;;;;;5008156;28;20019;-66
2021/12/07 14:14:14;;;;;;;4.43;1.80;;;18.80;99.90;;;;;;5011620;28;20062;-66
2021/12/07 14:16:43;;;;;;;3.15;1.60;;;18.80;99.90;;;;;;5006793;28;20106;-66
2021/12/07 14:19:11;;;;;;;6.53;1.95;;;18.80;99.90;;;;;;5010566;28;20030;-67
2021/12/07 14:21:39;;;;;;;2.70;1.85;;;18.80;99.90;;;;;;5026424;28;20342;-67
2021/12/07 14:24:15;;;;;;;3.97;1.90;;;18.80;99.90;;;;;;5028323;28;20057;-67
2021/12/07 14:26:43;;;;;;;2.72;1.40;;;18.80;99.90;;;;;;5010819;28;20093;-67
2021/12/07 14:29:16;;;;;;;3.38;2.15;;;18.80;99.90;;;;;;5009664;28;20153;-67
2021/12/07 14:31:47;;;;;;;5.75;1.88;;;18.80;99.90;;;;;;5010949;28;20029;-67
2021/12/07 14:34:19;;;;;;;4.57;2.17;;;18.90;99.90;;;;;;5008905;28;20034;-67
2021/12/07 14:36:50;;;;;;;2.65;2.00;;;18.90;99.90;;;;;;5009401;28;20018;-67
2021/12/07 14:39:27;;;;;;;3.65;2.00;;;18.90;99.90;;;;;;5008750;28;20113;-67
2021/12/07 14:41:57;;;;;;;4.00;2.25;;;19.00;99.90;;;;;;5008910;28;20081;-68
2021/12/07 14:44:28;;;;;;;4.65;2.35;;;19.10;99.90;;;;;;5010340;28;20037;-67
2021/12/07 14:47:00;;;;;;;4.75;2.20;;;19.10;99.90;;;;;;5010447;28;20361;-67
2021/12/07 14:49:27;;;;;;;4.10;2.70;;;19.10;99.90;;;;;;4992968;28;20031;-67